Leetonia, Pennsylvania
Current Conditions -  °F | °C
As of 11:35 AM on Wednesday 26 Nov 2014 (Local Time) from KN38 Reporting Station
Light Snow Light Snow  
Wind Chill: 23°   Ceiling: 300
Heat Index: 28°   Visibility: 0.75mi
Dew Point: 27°   Wind: 5mph
Humidity: 93%   Direction: 20°NNE
Pressure: 30.08"   Gusts: NA
Location:  41.4987°N, 77.4907°W
Report Text: KN38 261635Z AUTO 02004KT 3/4SM -SN BKN003 BKN008 M02/M03 A3008 RMK AO2
Loading
Personal Weather Stations






























Interactive Weather Map New forecast layout! Learn more

10-Day Weather Forecast

Advertisements
Track Severe Weather on mobile